Time;durP1;ratioP1;P1;durP2;ratioP2;P2;SDS_P1;SDS_P2;PMS_P1;PMS_P2;Temp;Humidity;BMP_temperature;BMP_pressure;BME280_temperature;BME280_humidity;BME280_pressure;Samples;Min_cycle;Max_cycle;Signal;HPM_P1;HPM_P2
2022/11/25 00:00:02;;;;;;;0.70;0.40;;;15.30;99.90;;;15.81;51.48;100800.94;4819494;28;101984;-57
2022/11/25 00:02:28;;;;;;;0.40;0.27;;;15.10;99.90;;;15.74;50.39;100785.31;4823375;28;98497;-57
2022/11/25 00:04:54;;;;;;;0.50;0.20;;;15.10;99.90;;;15.84;51.64;100792.78;4817918;28;98700;-54
2022/11/25 00:07:20;;;;;;;0.33;0.20;;;15.20;99.90;;;15.84;51.10;100787.47;4819768;28;97509;-52
2022/11/25 00:09:45;;;;;;;0.67;0.33;;;15.30;99.90;;;15.76;51.15;100785.22;4839864;28;97684;-49
2022/11/25 00:12:11;;;;;;;1.07;0.30;;;15.10;99.90;;;15.61;51.90;100783.41;4834234;28;111652;-48
2022/11/25 00:14:37;;;;;;;0.27;0.17;;;14.90;99.90;;;15.59;52.24;100785.25;4844631;28;106339;-55
2022/11/25 00:17:02;;;;;;;0.73;0.33;;;14.80;99.90;;;15.57;50.08;100782.69;4832427;28;99156;-54
2022/11/25 00:19:28;;;;;;;0.80;0.23;;;14.90;99.90;;;15.61;51.38;100786.06;4837693;28;117155;-52
2022/11/25 00:21:54;;;;;;;0.87;0.53;;;14.90;99.90;;;15.59;51.43;100779.94;4837624;28;98086;-50
2022/11/25 00:24:20;;;;;;;0.30;0.20;;;14.90;99.90;;;15.60;52.23;100773.72;4843322;28;100192;-56
2022/11/25 00:26:46;;;;;;;0.67;0.20;;;15.00;99.90;;;15.45;51.38;100778.03;4836569;28;108693;-55
2022/11/25 00:29:13;;;;;;;0.27;0.10;;;14.80;99.90;;;15.52;52.34;100768.81;4836951;28;97698;-51
2022/11/25 00:31:39;;;;;;;0.30;0.13;;;14.80;99.90;;;15.59;52.42;100764.88;4841762;28;97351;-49
2022/11/25 00:34:06;;;;;;;0.50;0.27;;;15.00;99.90;;;15.68;52.27;100763.53;4841917;28;97659;-52
2022/11/25 00:36:34;;;;;;;0.40;0.10;;;15.10;99.90;;;15.92;51.70;100756.00;4840431;28;96947;-54
2022/11/25 00:39:11;;;;;;;0.57;0.30;;;15.50;99.90;;;15.98;51.50;100752.97;4817108;29;98414;-50
2022/11/25 00:44:37;;;;;;;0.47;0.20;;;15.60;99.90;;;16.18;50.39;100747.38;4835473;28;97264;-49
2022/11/25 00:47:11;;;;;;;0.67;0.23;;;15.90;99.90;;;16.33;50.58;100743.81;4834899;28;97356;-59
2022/11/25 00:49:39;;;;;;;0.57;0.17;;;16.10;99.90;;;16.40;50.41;100730.19;4839934;28;97715;-51
2022/11/25 00:52:06;;;;;;;0.30;0.13;;;16.20;99.90;;;16.46;48.42;100740.44;4819904;28;97397;-56
2022/11/25 00:54:32;;;;;;;1.17;0.60;;;16.20;99.90;;;16.35;49.74;100741.97;4840815;28;97478;-56
2022/11/25 00:56:58;;;;;;;1.03;0.53;;;16.00;99.90;;;16.23;48.06;100745.31;4836364;28;97114;-56
2022/11/25 00:59:23;;;;;;;0.50;0.30;;;15.90;99.90;;;16.27;50.15;100741.53;4839606;28;117782;-54
2022/11/25 01:01:50;;;;;;;1.27;0.20;;;15.90;99.90;;;16.40;49.97;100735.50;4860447;28;98178;-54
2022/11/25 01:04:16;;;;;;;0.63;0.40;;;16.00;99.90;;;16.29;49.34;100739.63;4845271;28;97645;-48
2022/11/25 01:06:42;;;;;;;0.70;0.40;;;16.00;99.90;;;16.20;47.74;100733.97;4849330;28;97492;-56
2022/11/25 01:09:10;;;;;;;0.73;0.20;;;15.90;99.90;;;16.24;50.26;100747.03;4847552;28;103316;-49
2022/11/25 01:11:35;;;;;;;1.03;0.33;;;15.80;99.90;;;16.23;50.11;100734.69;4844148;28;97076;-56
2022/11/25 01:14:01;;;;;;;1.97;0.50;;;15.80;99.90;;;16.25;50.36;100738.09;4841446;28;106655;-56
2022/11/25 01:16:28;;;;;;;0.30;0.20;;;15.80;99.90;;;16.32;50.44;100739.44;4844822;28;103519;-55
2022/11/25 01:18:54;;;;;;;1.30;0.30;;;15.90;99.90;;;16.36;50.27;100735.69;4839879;28;98796;-55
2022/11/25 01:21:23;;;;;;;2.23;0.30;;;16.00;99.90;;;16.36;49.41;100735.69;4845375;28;113527;-58
2022/11/25 01:23:50;;;;;;;0.70;0.27;;;16.00;99.90;;;16.35;50.29;100739.31;4840088;28;97012;-52
2022/11/25 01:26:23;;;;;;;1.53;0.40;;;15.90;99.90;;;16.25;50.22;100742.56;4840188;28;97060;-55
2022/11/25 01:28:54;;;;;;;0.20;0.20;;;15.80;99.90;;;16.23;50.77;100745.31;4842563;28;97384;-50
2022/11/25 01:31:23;;;;;;;0.50;0.27;;;15.70;99.90;;;16.14;50.73;100743.19;4840379;28;102597;-50
2022/11/25 01:33:59;;;;;;;5.30;0.50;;;15.60;99.90;;;16.15;50.63;100742.22;4842930;28;97309;-56
2022/11/25 01:36:26;;;;;;;0.30;0.30;;;15.60;99.90;;;16.05;48.49;100741.03;4841117;28;97185;-49
2022/11/25 01:38:55;;;;;;;0.57;0.17;;;15.50;99.90;;;15.96;48.62;100741.56;4842042;28;97426;-51
2022/11/25 01:41:23;;;;;;;0.23;0.20;;;15.40;99.90;;;16.08;51.12;100743.53;4819759;28;99857;-57
2022/11/25 01:44:13;;;;;;;0.63;0.30;;;15.50;99.90;;;16.15;50.63;100736.91;4841915;28;96988;-53
2022/11/25 01:46:57;;;;;;;1.23;0.40;;;15.70;99.90;;;16.11;50.87;100735.38;4836122;28;97067;-53
2022/11/25 01:49:28;;;;;;;0.63;0.30;;;15.60;99.90;;;16.01;51.02;100736.84;4832595;28;100377;-51
2022/11/25 01:52:17;;;;;;;1.20;0.60;;;15.50;99.90;;;16.14;50.84;100735.19;4838602;28;97288;-56
2022/11/25 01:55:02;;;;;;;1.57;0.33;;;15.70;99.90;;;16.11;48.64;100738.03;4819695;29;97239;-50
2022/11/25 01:57:41;;;;;;;1.90;0.33;;;15.70;99.90;;;16.05;50.63;100735.72;4832858;28;97402;-50
2022/11/25 02:00:08;;;;;;;0.10;0.10;;;15.60;99.90;;;16.10;51.08;100738.13;4822053;28;97414;-52
2022/11/25 02:02:35;;;;;;;3.13;0.50;;;15.60;99.90;;;16.20;50.26;100737.53;4843003;28;96898;-56
2022/11/25 02:05:09;;;;;;;0.47;0.27;;;15.80;99.90;;;16.06;49.85;100748.09;4837394;28;112212;-53
2022/11/25 02:07:42;;;;;;;0.20;0.20;;;15.60;99.90;;;16.06;50.06;100733.00;4833100;28;97006;-52
2022/11/25 02:10:13;;;;;;;2.50;0.53;;;15.60;99.90;;;15.92;49.90;100730.25;4834077;28;97634;-53
2022/11/25 02:12:43;;;;;;;0.90;0.47;;;15.50;99.90;;;16.01;50.07;100731.53;4820758;29;97211;-51
2022/11/25 02:15:10;;;;;;;0.90;0.40;;;15.60;99.90;;;15.94;49.78;100730.16;4834638;28;96854;-51
2022/11/25 02:17:36;;;;;;;0.33;0.33;;;15.40;99.90;;;15.99;50.86;100730.75;4832278;29;96940;-47
2022/11/25 02:20:05;;;;;;;2.30;0.70;;;15.50;99.90;;;16.00;51.35;100720.03;4844456;28;124980;-50
2022/11/25 02:22:51;;;;;;;1.60;0.20;;;15.50;99.90;;;15.96;51.23;100717.63;4828003;28;97199;-57
2022/11/25 02:25:23;;;;;;;0.93;0.30;;;15.40;99.90;;;16.05;51.09;100709.09;4831979;28;97225;-52
2022/11/25 02:27:56;;;;;;;1.50;0.30;;;15.60;99.90;;;16.07;50.98;100715.22;4839959;28;96699;-54
2022/11/25 02:30:22;;;;;;;0.83;0.50;;;15.60;99.90;;;16.07;50.15;100717.88;4805193;28;101234;-55
2022/11/25 02:32:48;;;;;;;0.60;0.33;;;15.70;99.90;;;16.14;50.07;100713.91;4834641;28;102443;-50
2022/11/25 02:35:32;;;;;;;0.53;0.30;;;15.80;99.90;;;16.10;50.99;100715.03;4847449;28;100224;-54
2022/11/25 02:38:21;;;;;;;0.30;0.30;;;15.70;99.90;;;16.11;50.65;100713.25;4841562;28;97043;-54
2022/11/25 02:41:04;;;;;;;0.67;0.50;;;15.70;99.90;;;15.99;49.24;100707.66;4822442;29;97715;-48
2022/11/25 02:43:30;;;;;;;0.40;0.20;;;15.50;99.90;;;15.95;50.77;100715.91;4844610;28;103385;-46
2022/11/25 02:46:01;;;;;;;5.67;0.73;;;15.40;99.90;;;15.72;49.82;100707.44;4847535;28;97096;-53
2022/11/25 02:48:31;;;;;;;0.17;0.17;;;15.20;99.90;;;15.67;51.68;100714.81;4827635;28;97156;-56
2022/11/25 02:50:58;;;;;;;0.90;0.40;;;15.10;99.90;;;15.57;51.99;100718.88;4845566;28;98540;-51
2022/11/25 02:53:24;;;;;;;1.07;0.20;;;15.00;99.90;;;15.56;52.20;100716.31;4837456;28;106996;-49
2022/11/25 02:55:50;;;;;;;1.63;0.57;;;15.00;99.90;;;15.65;51.26;100698.09;4838543;28;97204;-56
2022/11/25 02:58:16;;;;;;;0.53;0.20;;;15.20;99.90;;;15.73;50.07;100689.66;4821919;28;97293;-51
2022/11/25 03:00:43;;;;;;;2.63;0.40;;;15.30;99.90;;;15.77;51.73;100704.53;4844880;28;98628;-54
2022/11/25 03:03:09;;;;;;;0.57;0.30;;;15.30;99.90;;;15.63;49.62;100696.47;4836800;28;98216;-53
2022/11/25 03:05:35;;;;;;;2.23;0.30;;;15.20;99.90;;;15.57;52.41;100702.94;4843692;28;97264;-54
2022/11/25 03:08:01;;;;;;;0.80;0.40;;;15.00;99.90;;;15.60;51.88;100702.78;4840606;28;99873;-53
2022/11/25 03:10:27;;;;;;;1.70;0.50;;;15.00;99.90;;;15.59;51.47;100701.06;4823024;28;99578;-56
2022/11/25 03:12:53;;;;;;;0.77;0.33;;;15.10;99.90;;;15.59;52.45;100695.75;4845784;28;112163;-53
2022/11/25 03:15:19;;;;;;;0.43;0.30;;;15.00;99.90;;;15.66;52.10;100683.84;4839803;28;99007;-50
2022/11/25 03:17:45;;;;;;;0.13;0.10;;;15.10;99.90;;;15.82;52.09;100696.28;4844776;28;97482;-51
2022/11/25 03:20:12;;;;;;;1.30;0.50;;;15.30;99.90;;;15.84;51.97;100699.72;4836499;28;97897;-47
2022/11/25 03:22:38;;;;;;;0.20;0.10;;;15.40;99.90;;;15.86;52.02;100704.00;4842015;28;99070;-53
2022/11/25 03:25:05;;;;;;;0.33;0.33;;;15.40;99.90;;;15.74;51.55;100721.50;4842453;28;97271;-53
2022/11/25 03:27:33;;;;;;;0.47;0.10;;;15.20;99.90;;;15.47;52.46;100728.28;4838465;28;97256;-51
2022/11/25 03:29:58;;;;;;;0.20;0.20;;;14.90;99.90;;;15.47;52.66;100725.63;4838582;28;97502;-54
2022/11/25 03:32:25;;;;;;;0.40;0.20;;;14.80;99.90;;;15.55;52.88;100720.78;4845730;28;96823;-50
2022/11/25 03:34:51;;;;;;;0.10;0.10;;;14.90;99.90;;;15.47;52.25;100717.66;4842920;28;97222;-51
2022/11/25 03:37:17;;;;;;;1.80;0.33;;;14.90;99.90;;;15.48;52.96;100722.94;4840056;28;98315;-49
2022/11/25 03:39:42;;;;;;;1.50;0.80;;;14.90;99.90;;;15.41;52.25;100715.34;4839603;28;97546;-55
2022/11/25 03:42:08;;;;;;;1.37;0.57;;;14.80;99.90;;;15.39;52.67;100725.22;4842441;28;97192;-54
2022/11/25 03:44:34;;;;;;;4.03;0.50;;;14.80;99.90;;;15.43;51.61;100732.06;4840786;28;96661;-55
2022/11/25 03:47:00;;;;;;;3.30;0.50;;;14.90;99.90;;;15.37;53.12;100738.59;4842241;28;97342;-48
2022/11/25 03:49:26;;;;;;;1.33;0.10;;;14.80;99.90;;;15.52;52.89;100731.59;4822973;28;115011;-54
2022/11/25 03:51:51;;;;;;;0.73;0.40;;;15.00;99.90;;;15.47;52.74;100738.94;4838338;28;99452;-52
2022/11/25 03:54:17;;;;;;;2.00;0.20;;;14.90;99.90;;;15.53;52.92;100733.28;4841577;28;99580;-52
2022/11/25 03:56:43;;;;;;;4.67;0.60;;;15.00;99.90;;;15.61;52.86;100731.09;4841832;28;105486;-54
2022/11/25 03:59:08;;;;;;;0.80;0.33;;;15.10;99.90;;;15.69;52.02;100726.22;4840972;28;112294;-54
2022/11/25 04:01:34;;;;;;;0.43;0.23;;;15.20;99.90;;;15.70;50.53;100729.72;4840766;28;103181;-52
2022/11/25 04:04:00;;;;;;;0.70;0.30;;;15.30;99.90;;;15.78;50.33;100732.84;4839214;28;97178;-53
2022/11/25 04:06:26;;;;;;;0.57;0.20;;;15.40;99.90;;;15.73;51.99;100740.19;4842067;28;97107;-52
2022/11/25 04:08:52;;;;;;;2.27;0.40;;;15.30;99.90;;;15.67;51.87;100746.72;4844876;28;98393;-53
2022/11/25 04:11:17;;;;;;;0.97;0.23;;;15.10;99.90;;;15.66;50.82;100738.84;4835768;28;108567;-51
2022/11/25 04:13:43;;;;;;;0.60;0.53;;;15.10;99.90;;;15.61;50.77;100746.19;4841618;28;107864;-50
2022/11/25 04:16:25;;;;;;;1.03;0.40;;;15.10;99.90;;;15.48;52.92;100740.69;4834445;28;99701;-59
2022/11/25 04:18:51;;;;;;;1.37;0.30;;;14.80;99.90;;;15.37;52.22;100733.28;4842717;28;119156;-55
2022/11/25 04:21:17;;;;;;;0.90;0.40;;;14.80;99.90;;;15.32;52.94;100742.41;4842380;28;97514;-52
2022/11/25 04:23:42;;;;;;;0.10;0.10;;;14.70;99.90;;;15.34;52.41;100735.25;4848983;28;97111;-49
2022/11/25 04:26:08;;;;;;;1.17;0.70;;;14.80;99.90;;;15.32;53.30;100739.75;4843772;28;96989;-52
2022/11/25 04:28:34;;;;;;;0.87;0.27;;;14.80;99.90;;;15.38;52.34;100745.63;4842750;28;97793;-55
2022/11/25 04:31:05;;;;;;;2.10;1.00;;;14.90;99.90;;;15.34;52.95;100749.41;4850626;28;115101;-50
2022/11/25 04:33:30;;;;;;;4.20;0.50;;;14.80;99.90;;;15.18;52.94;100744.00;4840864;28;96982;-50
2022/11/25 04:35:56;;;;;;;0.87;0.27;;;14.70;99.90;;;15.22;51.70;100751.84;4835847;28;102904;-54
2022/11/25 04:38:22;;;;;;;0.87;0.40;;;14.70;99.90;;;15.07;52.58;100750.88;4837352;28;104540;-56
2022/11/25 04:40:47;;;;;;;0.30;0.10;;;14.50;99.90;;;15.04;54.01;100745.69;4837022;28;110020;-58
2022/11/25 04:43:13;;;;;;;0.50;0.30;;;14.40;99.90;;;15.03;53.42;100757.25;4834308;28;96646;-50
2022/11/25 04:45:39;;;;;;;0.50;0.23;;;14.40;99.90;;;15.02;54.15;100763.50;4842549;28;97172;-53
2022/11/25 04:48:05;;;;;;;0.27;0.27;;;14.40;99.90;;;14.97;53.69;100763.75;4840651;28;97553;-57
2022/11/25 04:50:31;;;;;;;0.40;0.40;;;14.40;99.90;;;15.01;53.90;100772.41;4850115;28;111665;-60
2022/11/25 04:52:56;;;;;;;0.30;0.30;;;14.40;99.90;;;15.04;54.38;100767.78;4852586;28;99323;-49
2022/11/25 04:55:22;;;;;;;0.80;0.20;;;14.50;99.90;;;15.17;54.10;100766.22;4835949;28;97231;-49
2022/11/25 04:57:48;;;;;;;0.20;0.20;;;14.60;99.90;;;15.21;54.04;100771.41;4839668;28;118889;-51
2022/11/25 05:00:14;;;;;;;0.30;0.10;;;14.70;99.90;;;15.23;53.97;100778.34;4837575;28;98233;-51
2022/11/25 05:02:40;;;;;;;0.70;0.37;;;14.70;99.90;;;15.17;54.11;100776.84;4844095;28;97345;-49
2022/11/25 05:05:07;;;;;;;1.13;0.47;;;14.60;99.90;;;15.20;53.57;100777.66;4838259;28;97001;-51
2022/11/25 05:07:33;;;;;;;0.37;0.20;;;14.60;99.90;;;15.30;53.59;100776.19;4833197;28;100837;-50
2022/11/25 05:09:59;;;;;;;0.60;0.20;;;14.70;99.90;;;15.30;53.87;100774.41;4841086;28;97298;-50
2022/11/25 05:12:27;;;;;;;0.57;0.37;;;14.70;99.90;;;15.32;53.38;100769.84;4832011;28;103688;-49
2022/11/25 05:14:54;;;;;;;2.73;0.50;;;14.80;99.90;;;15.35;52.97;100777.69;4840071;28;97339;-53
2022/11/25 05:17:26;;;;;;;4.17;0.47;;;14.70;99.90;;;15.34;53.73;100775.13;4820421;28;97473;-50
2022/11/25 05:19:52;;;;;;;1.43;0.30;;;14.70;99.90;;;15.19;54.03;100782.09;4837287;28;97555;-53
2022/11/25 05:22:22;;;;;;;1.50;0.57;;;14.60;99.90;;;15.16;54.63;100785.75;4837035;28;97058;-50
2022/11/25 05:24:47;;;;;;;0.40;0.30;;;14.50;99.90;;;15.02;54.92;100790.06;4835839;28;98043;-52
2022/11/25 05:27:14;;;;;;;0.33;0.23;;;14.40;99.90;;;14.93;55.08;100794.09;4820134;28;105053;-55
2022/11/25 05:29:41;;;;;;;2.30;0.60;;;14.20;99.90;;;14.87;55.34;100794.38;4829389;28;97729;-51
2022/11/25 05:32:08;;;;;;;0.90;0.40;;;14.20;99.90;;;14.81;55.57;100797.34;4843181;28;97089;-49
2022/11/25 05:34:34;;;;;;;0.30;0.30;;;14.10;99.90;;;14.87;55.17;100789.06;4820238;28;97570;-51
2022/11/25 05:36:59;;;;;;;1.03;0.53;;;14.20;99.90;;;14.87;55.33;100797.03;4843899;28;98111;-57
2022/11/25 05:39:25;;;;;;;0.63;0.23;;;14.20;99.90;;;14.85;55.36;100801.56;4817505;28;97314;-54
2022/11/25 05:41:51;;;;;;;0.70;0.50;;;14.20;99.90;;;14.79;55.91;100799.25;4844190;28;97319;-52
2022/11/25 05:44:17;;;;;;;0.30;0.30;;;14.10;99.90;;;14.68;56.11;100801.56;4836646;28;97041;-51
2022/11/25 05:46:46;;;;;;;4.00;0.20;;;14.00;99.90;;;14.58;56.60;100798.50;4842658;28;98688;-57
2022/11/25 05:49:12;;;;;;;0.30;0.10;;;13.90;99.90;;;14.53;56.61;100804.06;4838799;28;97378;-49
2022/11/25 05:51:38;;;;;;;0.23;0.23;;;13.80;99.90;;;14.55;56.99;100807.50;4844126;28;97285;-52
2022/11/25 05:54:04;;;;;;;3.67;0.43;;;13.90;99.90;;;14.56;56.81;100800.38;4836861;28;97410;-53
2022/11/25 05:56:30;;;;;;;0.30;0.20;;;13.90;99.90;;;14.61;56.54;100801.03;4840700;28;97708;-49
2022/11/25 05:58:58;;;;;;;2.27;0.53;;;13.90;99.90;;;14.46;56.50;100807.94;4842891;28;97345;-50
2022/11/25 06:01:24;;;;;;;0.80;0.50;;;13.80;99.90;;;14.54;56.47;100813.72;4838777;28;99746;-53
2022/11/25 06:03:50;;;;;;;0.60;0.33;;;13.90;99.90;;;14.42;57.23;100821.41;4847140;28;97015;-54
2022/11/25 06:06:16;;;;;;;5.10;0.80;;;13.80;99.90;;;14.31;57.86;100829.88;4843015;28;101123;-54
2022/11/25 06:08:42;;;;;;;0.37;0.37;;;13.70;99.90;;;14.27;57.70;100838.91;4841211;28;97004;-49
2022/11/25 06:11:14;;;;;;;0.87;0.57;;;13.60;99.90;;;14.28;58.01;100843.28;4846492;28;97479;-47
2022/11/25 06:13:41;;;;;;;0.43;0.23;;;13.60;99.90;;;14.53;56.89;100845.66;4851939;28;97010;-48
2022/11/25 06:16:14;;;;;;;2.20;0.93;;;13.90;99.90;;;14.59;56.84;100840.91;4855419;28;97747;-47
2022/11/25 06:18:40;;;;;;;0.20;0.20;;;13.90;99.90;;;14.63;56.78;100840.78;4843442;28;101242;-52
2022/11/25 06:21:08;;;;;;;1.43;0.40;;;14.00;99.90;;;14.68;56.31;100830.78;4857713;28;96862;-49
2022/11/25 06:23:34;;;;;;;0.57;0.40;;;14.00;99.90;;;14.76;56.15;100839.22;4845658;28;96961;-50
2022/11/25 06:26:15;;;;;;;4.43;0.30;;;14.10;99.90;;;14.65;56.74;100845.06;4851551;28;118250;-51
2022/11/25 06:28:41;;;;;;;2.70;0.40;;;14.00;99.90;;;14.69;56.68;100851.06;4836358;28;101328;-53
2022/11/25 06:31:16;;;;;;;5.43;0.50;;;13.90;99.90;;;14.65;56.36;100850.38;4839079;28;97373;-48
2022/11/25 06:33:45;;;;;;;3.10;0.60;;;14.00;99.90;;;14.51;57.19;100853.72;4839509;28;97099;-50
2022/11/25 06:36:15;;;;;;;1.10;0.40;;;13.80;99.90;;;14.50;57.07;100857.28;4833103;28;97278;-52
2022/11/25 06:38:47;;;;;;;1.43;0.57;;;13.70;99.90;;;14.49;57.17;100871.50;4837576;28;99963;-51
2022/11/25 06:41:13;;;;;;;0.53;0.30;;;13.70;99.90;;;14.37;57.90;100866.75;4839328;28;97612;-59
2022/11/25 06:43:40;;;;;;;0.50;0.50;;;13.60;99.90;;;14.29;58.31;100879.50;4824224;28;97182;-56
2022/11/25 06:46:11;;;;;;;0.37;0.37;;;13.60;99.90;;;14.29;57.79;100884.81;4840583;28;108684;-47
2022/11/25 06:48:37;;;;;;;1.03;0.60;;;13.60;99.90;;;14.36;57.93;100886.25;4822046;29;96998;-52
2022/11/25 06:51:15;;;;;;;2.27;0.80;;;13.60;99.90;;;14.36;57.56;100886.25;4837263;28;109113;-57
2022/11/25 06:53:41;;;;;;;1.17;0.67;;;13.70;99.90;;;14.38;57.45;100889.69;4821533;29;97244;-56
2022/11/25 06:56:20;;;;;;;1.17;0.40;;;13.70;99.90;;;14.40;57.72;100885.16;4839319;28;118183;-55
2022/11/25 06:58:47;;;;;;;2.57;0.67;;;13.70;99.90;;;14.44;57.51;100888.56;4837662;28;102406;-55
2022/11/25 07:01:14;;;;;;;0.70;0.63;;;13.70;99.90;;;14.42;58.08;100891.25;4844602;28;97127;-53
2022/11/25 07:03:41;;;;;;;3.80;0.53;;;13.70;99.90;;;14.52;57.06;100887.28;4838015;28;97008;-52
2022/11/25 07:06:07;;;;;;;0.20;0.20;;;13.80;99.90;;;14.65;56.85;100892.84;4835948;28;98434;-50
2022/11/25 07:08:33;;;;;;;1.70;0.60;;;13.90;99.90;;;14.65;56.43;100894.66;4822159;29;97693;-54
2022/11/25 07:11:18;;;;;;;1.97;0.70;;;13.90;99.90;;;14.65;56.87;100892.00;4840721;28;97725;-48
2022/11/25 07:13:44;;;;;;;0.77;0.47;;;13.90;99.90;;;14.63;56.81;100893.88;4837475;28;97802;-54
2022/11/25 07:16:11;;;;;;;0.40;0.20;;;13.90;99.90;;;14.66;57.04;100893.72;4823109;28;99530;-51
2022/11/25 07:18:38;;;;;;;1.67;0.50;;;13.90;99.90;;;14.78;56.37;100896.63;4837743;28;97305;-53
2022/11/25 07:21:09;;;;;;;1.03;0.50;;;14.00;99.90;;;14.68;56.35;100902.47;4840208;28;96950;-55
2022/11/25 07:23:36;;;;;;;5.37;0.70;;;14.00;99.90;;;14.72;56.87;100906.69;4811892;28;97360;-51
2022/11/25 07:26:15;;;;;;;0.57;0.30;;;13.90;99.90;;;14.74;56.57;100912.75;4839127;28;98666;-53
2022/11/25 07:28:41;;;;;;;0.23;0.20;;;13.90;99.90;;;14.76;56.72;100905.63;4829607;28;101486;-56
2022/11/25 07:31:21;;;;;;;1.23;0.60;;;13.90;99.90;;;14.80;55.86;100913.34;4840222;28;97202;-53
2022/11/25 07:33:50;;;;;;;2.30;0.73;;;14.00;99.90;;;14.71;56.14;100915.56;4838280;28;97376;-58
2022/11/25 07:36:16;;;;;;;1.10;0.47;;;13.90;99.90;;;14.77;56.42;100912.63;4841420;28;97563;-54
2022/11/25 07:38:42;;;;;;;1.50;0.70;;;13.90;99.90;;;14.66;56.11;100930.88;4821458;28;102653;-57
2022/11/25 07:41:22;;;;;;;0.90;0.47;;;13.80;99.90;;;14.61;56.61;100938.19;4839202;28;97323;-57
2022/11/25 07:43:51;;;;;;;1.20;0.47;;;13.80;99.90;;;14.45;56.27;100946.88;4838595;28;97316;-52
2022/11/25 07:46:28;;;;;;;1.27;0.60;;;13.70;99.90;;;14.38;56.88;100948.06;4834955;28;99007;-54
2022/11/25 07:48:59;;;;;;;1.17;0.70;;;13.60;99.90;;;14.33;56.84;100960.72;4820520;29;99961;-50
2022/11/25 07:51:56;;;;;;;3.03;0.73;;;13.50;99.90;;;14.41;57.83;100966.50;4836355;28;97297;-50
2022/11/25 07:54:23;;;;;;;1.00;0.50;;;13.50;99.90;;;14.38;56.95;100964.00;4832659;28;97102;-53
2022/11/25 07:56:50;;;;;;;1.27;0.50;;;13.60;99.90;;;14.34;57.28;100957.13;4847323;28;97798;-57
2022/11/25 07:59:19;;;;;;;0.20;0.20;;;13.50;99.90;;;14.42;57.39;100965.56;4844647;28;97182;-57
2022/11/25 08:01:50;;;;;;;0.43;0.30;;;13.60;99.90;;;14.49;57.17;100972.38;4841889;28;96890;-54
2022/11/25 08:04:16;;;;;;;0.77;0.20;;;13.60;99.90;;;14.49;56.93;100971.50;4849195;28;96820;-59
2022/11/25 08:06:44;;;;;;;2.40;0.50;;;13.70;99.90;;;14.48;57.25;100975.97;4845654;28;97197;-57
2022/11/25 08:09:14;;;;;;;0.70;0.50;;;13.60;99.90;;;14.62;56.95;100977.09;4846848;28;96858;-54
2022/11/25 08:11:40;;;;;;;1.23;0.30;;;13.70;99.90;;;14.62;56.63;100977.97;4839630;28;97200;-58
2022/11/25 08:14:07;;;;;;;1.80;0.50;;;13.80;99.90;;;14.60;56.14;100974.50;4849656;28;97356;-55
2022/11/25 08:16:33;;;;;;;1.70;0.73;;;13.80;99.90;;;14.52;56.53;100980.19;4841549;28;99899;-56
2022/11/25 08:19:02;;;;;;;1.30;0.50;;;13.70;99.90;;;14.52;56.84;100982.84;4836592;28;97171;-58
2022/11/25 08:21:28;;;;;;;0.77;0.50;;;13.70;99.90;;;14.41;56.87;100990.38;4839676;28;96812;-53
2022/11/25 08:23:55;;;;;;;2.30;0.60;;;13.60;99.90;;;14.18;57.81;100993.25;4841508;28;97418;-55
2022/11/25 08:26:25;;;;;;;3.50;0.80;;;13.40;99.90;;;14.16;58.62;100995.94;4836262;28;97557;-56
2022/11/25 08:28:53;;;;;;;3.77;0.63;;;13.30;99.90;;;14.05;58.96;101008.00;4840584;28;97440;-56
2022/11/25 08:31:23;;;;;;;1.33;0.63;;;13.30;99.90;;;14.08;59.12;101008.72;4846730;28;96689;-58
2022/11/25 08:33:50;;;;;;;1.00;0.63;;;13.30;99.90;;;14.08;58.98;101003.41;4838179;28;97528;-54
2022/11/25 08:36:17;;;;;;;5.33;0.93;;;13.30;99.90;;;14.29;58.31;101006.88;4839448;28;97125;-53
2022/11/25 08:38:46;;;;;;;1.60;0.67;;;13.50;99.90;;;14.29;58.28;101018.34;4837314;28;96737;-53
2022/11/25 08:41:17;;;;;;;2.17;1.07;;;13.60;99.90;;;14.34;58.02;101020.81;4844831;28;96754;-57
2022/11/25 08:43:43;;;;;;;1.30;0.63;;;13.60;99.90;;;14.34;58.55;101025.25;4838539;28;97270;-55
2022/11/25 08:46:20;;;;;;;1.00;0.60;;;13.60;99.90;;;14.46;57.99;101033.53;4848788;28;97878;-51
2022/11/25 08:48:46;;;;;;;1.30;0.30;;;13.70;99.90;;;14.65;57.21;101035.34;4837485;28;97312;-58
2022/11/25 08:51:20;;;;;;;1.97;0.50;;;13.90;99.90;;;14.75;56.92;101036.63;4848947;28;97082;-49
2022/11/25 08:53:50;;;;;;;4.57;1.03;;;14.10;99.90;;;14.78;57.02;101041.81;4840473;28;97747;-47
2022/11/25 08:56:18;;;;;;;2.47;0.90;;;14.20;99.90;;;14.69;57.38;101052.88;4823698;28;97995;-55
2022/11/25 08:58:43;;;;;;;0.53;0.53;;;14.00;99.90;;;14.77;56.84;101048.94;4840012;28;97736;-47
2022/11/25 09:01:11;;;;;;;3.87;0.93;;;14.10;99.90;;;14.81;56.88;101041.66;4839181;28;98052;-50
2022/11/25 09:03:42;;;;;;;1.07;0.87;;;14.10;99.90;;;14.73;57.25;101044.66;4837534;28;97087;-52
2022/11/25 09:06:08;;;;;;;0.40;0.40;;;14.00;99.90;;;14.76;56.66;101049.88;4848583;28;98368;-52
2022/11/25 09:08:36;;;;;;;2.17;0.90;;;14.00;99.90;;;14.62;57.48;101051.44;4836449;28;98108;-54
2022/11/25 09:11:02;;;;;;;2.03;0.57;;;13.90;99.90;;;14.73;56.77;101049.13;4838773;28;97250;-55
2022/11/25 09:13:28;;;;;;;1.03;0.80;;;14.00;99.90;;;14.75;56.90;101048.13;4834121;28;97057;-50
2022/11/25 09:15:54;;;;;;;1.77;0.70;;;14.00;99.90;;;14.76;56.78;101043.69;4845672;28;97471;-56
2022/11/25 09:18:24;;;;;;;3.17;1.00;;;14.00;99.90;;;14.73;57.26;101054.44;4842109;28;96961;-50
2022/11/25 09:20:51;;;;;;;1.90;0.73;;;14.00;99.90;;;14.68;57.62;101061.75;4818503;28;96660;-55
2022/11/25 09:23:18;;;;;;;1.10;1.00;;;13.90;99.90;;;14.66;57.82;101060.97;4827229;28;97056;-52
2022/11/25 09:25:57;;;;;;;1.60;0.50;;;13.90;99.90;;;14.59;58.53;101058.59;4839997;28;97628;-52
2022/11/25 09:28:25;;;;;;;1.37;0.50;;;13.90;99.90;;;14.50;58.38;101064.34;4839187;28;97202;-59
2022/11/25 09:30:51;;;;;;;0.80;0.50;;;13.80;99.90;;;14.43;59.58;101065.50;4834806;28;97033;-53
2022/11/25 09:33:17;;;;;;;0.70;0.60;;;13.80;99.90;;;14.41;59.68;101064.69;4844646;28;97018;-50
2022/11/25 09:35:44;;;;;;;2.07;0.70;;;13.80;99.90;;;14.49;59.09;101072.38;4843811;28;98765;-55
2022/11/25 09:38:10;;;;;;;1.27;0.80;;;13.80;99.90;;;14.47;59.32;101075.09;4848183;28;98536;-51
2022/11/25 09:40:54;;;;;;;1.80;0.80;;;13.80;99.90;;;14.40;60.51;101078.91;4844271;28;97396;-55
2022/11/25 09:47:02;;;;;;;0.30;0.30;;;13.90;99.90;;;14.56;59.63;101085.28;4838107;28;101991;-54
2022/11/25 09:49:40;;;;;;;0.80;0.60;;;14.00;99.90;;;14.43;60.71;101094.69;4819617;28;96693;-52
2022/11/25 09:52:12;;;;;;;3.30;1.00;;;14.00;99.90;;;14.38;60.77;101098.50;4843439;28;97461;-52
2022/11/25 09:54:44;;;;;;;0.20;0.20;;;14.00;99.90;;;14.42;58.44;101092.97;4821099;28;97089;-54
2022/11/25 09:57:39;;;;;;;0.73;0.30;;;13.90;99.90;;;14.48;59.01;101100.72;4824278;29;97537;-52
2022/11/25 10:00:13;;;;;;;5.13;0.50;;;14.00;99.90;;;14.45;59.53;101110.56;4826955;28;99952;-54
2022/11/25 10:02:59;;;;;;;0.63;0.43;;;14.00;99.90;;;14.40;59.66;101105.44;4813529;28;96659;-53
2022/11/25 10:05:30;;;;;;;1.03;0.80;;;14.00;99.90;;;14.45;59.71;101108.78;4848931;28;98208;-50
2022/11/25 10:08:05;;;;;;;0.83;0.60;;;14.00;99.90;;;14.39;59.59;101113.47;4836742;28;100594;-50
2022/11/25 10:10:49;;;;;;;2.07;0.57;;;14.00;99.90;;;14.45;59.12;101119.41;4823637;28;97202;-60
2022/11/25 10:13:30;;;;;;;1.40;0.63;;;14.00;99.90;;;14.48;59.74;101103.34;4830172;28;96967;-53
2022/11/25 10:16:00;;;;;;;1.23;0.77;;;14.10;99.90;;;14.43;60.15;101121.22;4806510;29;97167;-48
2022/11/25 10:18:38;;;;;;;2.50;0.77;;;14.10;99.90;;;14.45;59.86;101115.88;4839519;28;97300;-50
2022/11/25 10:21:04;;;;;;;0.93;0.43;;;14.10;99.90;;;14.43;60.25;101123.03;4837815;28;101026;-54
2022/11/25 10:23:35;;;;;;;1.37;0.60;;;14.10;99.90;;;14.41;59.80;101120.44;4821367;28;96643;-54